This is the latest recevied weather packets stored in our database for station/object RUSSARO. If no packets are shown the sender has not sent any weather packets the latest 10 day(s).
| Time | Temp. | Humidity | Pressure | Rain* | Wind** | Luminosity | Snow |
|---|---|---|---|---|---|---|---|
| 1777996041 | 6.11° C | 78% | 1008 hPa | 0 mm | - | - | - |
| 1777994841 | 6.67° C | 74% | 1007.9 hPa | 0 mm | - | - | - |
| 1777993641 | 7.22° C | 75% | 1008 hPa | 0 mm | - | - | - |
| 1777992441 | 7.22° C | 77% | 1007.8 hPa | 0 mm | - | - | - |
| 1777991241 | 7.78° C | 74% | 1007.8 hPa | 0 mm | - | - | - |
| 1777990040 | 7.78° C | 76% | 1007.7 hPa | 0 mm | - | - | - |
| 1777988841 | 7.78° C | 74% | 1007.5 hPa | 0 mm | - | - | - |
| 1777987640 | 7.78° C | 74% | 1007.4 hPa | 0 mm | - | - | - |
| 1777986441 | 7.78° C | 73% | 1007.3 hPa | 0 mm | - | - | - |
| 1777985240 | 8.33° C | 71% | 1007.2 hPa | 0 mm | - | - | - |
| 1777984040 | 8.33° C | 68% | 1007.1 hPa | 0 mm | - | - | - |
| 1777982840 | 8.33° C | 65% | 1006.9 hPa | 0 mm | - | - | - |
| 1777981640 | 7.78° C | 67% | 1006.8 hPa | 0 mm | - | - | - |
| 1777980440 | 8.33° C | 68% | 1006.6 hPa | 0 mm | - | - | - |
| 1777979240 | 8.33° C | 68% | 1006.4 hPa | 0 mm | - | - | - |
| 1777978040 | 8.89° C | 68% | 1006.2 hPa | 0 mm | - | - | - |
| 1777976839 | 8.33° C | 72% | 1005.9 hPa | 0 mm | - | - | - |
| 1777975640 | 8.33° C | 72% | 1005.8 hPa | 0 mm | - | - | - |
| 1777974439 | 8.33° C | 74% | 1005.5 hPa | 0 mm | - | - | - |
| 1777973239 | 7.78° C | 78% | 1005.2 hPa | 0 mm | - | - | - |
| 1777972039 | 8.33° C | 71% | 1004.9 hPa | 0 mm | - | - | - |
| 1777970840 | 7.78° C | 78% | 1004.6 hPa | 0 mm | - | - | - |
| 1777969639 | 7.78° C | 80% | 1004.2 hPa | 0 mm | - | - | - |
| 1777968439 | 8.89° C | 72% | 1004 hPa | 0 mm | - | - | - |
| 1777967239 | 8.33° C | 73% | 1003.6 hPa | 0 mm | - | - | - |
* Rain latest hour (hover to see other rain measurements)
** Current wind speed in m/s (hover to see current wind gust speed)